Portada
METAR-TAF:

METAR-TAF

Aeroports :

Kitakyushu, Japó

latitud: 33-50N, longitud: 130-57E, altitud: 3 m

Observació

L'informe es va fer fa 3 hores i 44 minuts, a les 04:00 UTC
Vent 14 kt del Nord-Oest
Temperatura 9°C
Humitat 49%
Pressió 1022 hPa
Visibilitat 10 km o més
Escasses núvols a una alçada de 3000 ft
Cel ennuvolat a una alçada de 5000 ft

METAR: RJFR 060400Z 31014KT 9999 FEW030 BKN050 09/M01 Q1022

Hora: 16:44 (07:44 UTC)

Pronòstic

L'informe es va fer fa 2 hores i 39 minuts, a les 05:05 UTC
Pronòstic vàlid del 06 a les 06 UTC al 07 a les 12 UTC
Vent 10 kt del Oest
Visibilitat 10 km o més
Escasses núvols a una alçada de 3000 ft
Cel ennuvolat a una alçada de 4500 ft

TAF: RJFR 060505Z 0606/0712 27010KT 9999 FEW030 BKN045

Observacions i pronòstics meteorològics de més de 4000 aeroports (METAR i TAF).

Les estacions disponibles són els punts grocs i vermells al mapa.

Posi el ratolí al punt desitjat per veure el nom de l'estació.

Feu clic per veure les observacions i els pronòstics meteorològics.

Per canviar el mapa: feu clic els botons verds amb una creu de color negre per apropar; al botó verd amb un guió per allunyar la imatge; o en les fletxes verdes per a mapes adjacents.


METAR-TAF: